Time;durP1;ratioP1;P1;durP2;ratioP2;P2;SDS_P1;SDS_P2;PMS_P1;PMS_P2;Temp;Humidity;BMP_temperature;BMP_pressure;BME280_temperature;BME280_humidity;BME280_pressure;Samples;Min_cycle;Max_cycle;Signal;HPM_P1;HPM_P2
2021/05/23 00:01:59;;;;;;;4.18;2.55;;;410.20;1996.80;;;;;;5071662;28;20036;-56
2021/05/23 00:04:25;;;;;;;3.88;2.60;;;410.10;1996.80;;;;;;5071712;28;20371;-56
2021/05/23 00:06:51;;;;;;;4.80;2.17;;;410.20;1971.20;;;;;;5071907;28;20074;-56
2021/05/23 00:09:17;;;;;;;10.23;5.85;;;410.20;1945.60;;;;;;5071701;28;20083;-56
2021/05/23 00:11:43;;;;;;;5.20;2.40;;;410.20;1945.60;;;;;;5071703;28;20024;-55
2021/05/23 00:14:08;;;;;;;4.13;2.88;;;410.30;1920.00;;;;;;5071582;28;20024;-57
2021/05/23 00:16:34;;;;;;;5.55;2.30;;;410.30;1945.60;;;;;;5071839;28;20578;-57
2021/05/23 00:19:00;;;;;;;4.43;2.40;;;410.20;1971.20;;;;;;5071811;28;20032;-55
2021/05/23 00:21:26;;;;;;;7.43;3.17;;;410.20;1945.60;;;;;;5053157;28;20033;-56
2021/05/23 00:23:53;;;;;;;5.70;2.05;;;410.20;1945.60;;;;;;5071454;28;20058;-54
2021/05/23 00:26:19;;;;;;;5.10;2.55;;;410.10;1920.00;;;;;;5071494;28;20104;-60
2021/05/23 00:28:46;;;;;;;3.92;2.50;;;410.10;1920.00;;;;;;5071468;28;20121;-58
2021/05/23 00:31:12;;;;;;;3.47;1.90;;;410.10;1920.00;;;;;;5071392;28;20024;-55
2021/05/23 00:33:37;;;;;;;4.25;2.67;;;410.00;1945.60;;;;;;5071217;28;20029;-54
2021/05/23 00:36:04;;;;;;;6.13;2.50;;;409.80;1971.20;;;;;;5071121;28;20021;-54
2021/05/23 00:38:30;;;;;;;4.75;2.65;;;409.70;1971.20;;;;;;5071194;28;20056;-56
2021/05/23 00:40:55;;;;;;;4.13;2.65;;;409.60;2022.40;;;;;;5070953;28;20068;-57
2021/05/23 00:43:21;;;;;;;6.13;2.45;;;409.60;1996.80;;;;;;5070944;28;20033;-54
2021/05/23 00:45:49;;;;;;;4.30;2.58;;;409.70;1996.80;;;;;;5070867;28;20034;-55
2021/05/23 00:48:16;;;;;;;4.32;2.28;;;409.70;1971.20;;;;;;5061503;28;20063;-55
2021/05/23 00:50:42;;;;;;;7.55;2.63;;;409.60;2022.40;;;;;;5060208;28;20471;-56
2021/05/23 00:53:09;;;;;;;8.70;2.50;;;384.80;2073.60;;;;;;5059792;28;20060;-54
2021/05/23 00:55:35;;;;;;;4.35;2.10;;;384.80;1996.80;;;;;;5062939;28;20025;-54
2021/05/23 00:58:01;;;;;;;4.28;2.17;;;384.70;2022.40;;;;;;5056539;28;20048;-53
2021/05/23 01:00:33;;;;;;;3.58;2.20;;;384.70;2048.00;;;;;;5040266;28;20077;-54
2021/05/23 01:03:02;;;;;;;7.05;2.70;;;384.70;2048.00;;;;;;5060243;28;20041;-55
2021/05/23 01:05:32;;;;;;;4.60;2.47;;;384.60;2048.00;;;;;;5058443;28;20530;-55
2021/05/23 01:07:57;;;;;;;5.85;2.70;;;384.40;2099.20;;;;;;5060133;28;20568;-54
2021/05/23 01:10:26;;;;;;;5.90;2.45;;;384.40;2099.20;;;;;;5058801;28;20112;-53
2021/05/23 01:12:59;;;;;;;4.47;2.65;;;384.40;2099.20;;;;;;5058693;28;20467;-59
2021/05/23 01:15:28;;;;;;;4.85;2.28;;;384.40;2099.20;;;;;;5059786;28;20090;-57
2021/05/23 01:17:57;;;;;;;6.88;2.97;;;384.40;2073.60;;;;;;5061165;28;20028;-55
2021/05/23 01:20:33;;;;;;;4.57;2.75;;;384.30;2099.20;;;;;;5060169;28;20032;-55
2021/05/23 01:23:27;;;;;;;4.97;3.00;;;384.30;2073.60;;;;;;5058888;28;20115;-53
2021/05/23 01:25:57;;;;;;;4.65;2.65;;;384.30;2073.60;;;;;;5070014;28;20021;-60
2021/05/23 01:28:23;;;;;;;5.60;2.33;;;384.30;2048.00;;;;;;5070665;28;20382;-56
2021/05/23 01:30:51;;;;;;;4.95;2.72;;;384.30;2099.20;;;;;;5070150;28;20025;-56
2021/05/23 01:33:20;;;;;;;4.88;2.47;;;384.10;2124.80;;;;;;5070116;28;20036;-57
2021/05/23 01:35:53;;;;;;;4.53;2.30;;;384.10;2048.00;;;;;;5070030;28;20459;-56
2021/05/23 01:38:20;;;;;;;5.28;2.30;;;384.30;2073.60;;;;;;5070192;28;20074;-56
2021/05/23 01:40:49;;;;;;;4.45;2.55;;;384.20;2099.20;;;;;;5069954;28;20025;-57
2021/05/23 01:43:15;;;;;;;4.13;2.65;;;384.10;2124.80;;;;;;5069851;28;20045;-57
2021/05/23 01:45:41;;;;;;;3.65;2.35;;;384.10;2073.60;;;;;;5070452;28;20027;-54
2021/05/23 01:48:09;;;;;;;8.65;2.63;;;384.20;2048.00;;;;;;5069645;28;20029;-54
2021/05/23 01:50:36;;;;;;;6.72;3.08;;;384.30;2099.20;;;;;;5069992;28;20067;-54
2021/05/23 01:53:04;;;;;;;3.88;2.58;;;384.30;2099.20;;;;;;5069947;28;20081;-54
2021/05/23 01:55:30;;;;;;;3.30;2.10;;;384.30;2099.20;;;;;;5070046;28;20021;-54
2021/05/23 01:57:56;;;;;;;5.28;2.67;;;384.20;2073.60;;;;;;5069848;28;20067;-54
2021/05/23 02:00:26;;;;;;;8.32;2.65;;;384.10;2124.80;;;;;;5070077;28;20063;-54
2021/05/23 02:02:52;;;;;;;6.93;2.92;;;384.00;2124.80;;;;;;5052390;28;20379;-54
2021/05/23 02:05:18;;;;;;;6.95;2.90;;;384.00;2099.20;;;;;;5069717;28;20075;-58
2021/05/23 02:07:45;;;;;;;4.05;2.00;;;384.00;2099.20;;;;;;5069858;28;20024;-55
2021/05/23 02:10:14;;;;;;;4.78;2.42;;;359.30;2099.20;;;;;;5069897;28;20025;-60
2021/05/23 02:12:41;;;;;;;4.78;2.60;;;384.00;2124.80;;;;;;5070080;28;20033;-57
2021/05/23 02:15:08;;;;;;;4.22;2.58;;;359.20;2176.00;;;;;;5069753;28;20025;-56
2021/05/23 02:17:39;;;;;;;3.67;2.42;;;359.20;2124.80;;;;;;5069745;28;20520;-56
2021/05/23 02:20:07;;;;;;;4.00;1.92;;;359.30;2073.60;;;;;;5069693;28;20040;-56
2021/05/23 02:22:47;;;;;;;3.35;2.35;;;359.20;2048.00;;;;;;5069737;28;20114;-56
2021/05/23 02:25:16;;;;;;;6.05;3.25;;;359.10;2099.20;;;;;;5069997;28;20103;-56
2021/05/23 02:27:47;;;;;;;7.00;4.45;;;359.10;2124.80;;;;;;5069970;28;20047;-57
2021/05/23 02:30:16;;;;;;;5.78;4.18;;;359.00;2124.80;;;;;;5069751;28;20035;-55
2021/05/23 02:32:41;;;;;;;6.72;3.35;;;359.00;2124.80;;;;;;5069715;28;20028;-58
2021/05/23 02:35:09;;;;;;;6.00;2.88;;;359.00;2124.80;;;;;;5069799;28;20028;-56
2021/05/23 02:37:35;;;;;;;4.13;3.05;;;359.00;2124.80;;;;;;5069635;28;20029;-59
2021/05/23 02:40:13;;;;;;;6.22;3.13;;;359.00;2176.00;;;;;;5069717;28;20462;-56
2021/05/23 02:42:40;;;;;;;4.95;2.88;;;358.80;2201.60;;;;;;5069352;28;20052;-56
2021/05/23 02:45:08;;;;;;;7.40;3.30;;;358.70;2201.60;;;;;;5069574;28;20029;-56
2021/05/23 02:47:34;;;;;;;14.30;2.70;;;358.70;2201.60;;;;;;5069622;28;20466;-57
2021/05/23 02:50:02;;;;;;;9.65;2.88;;;358.70;2201.60;;;;;;5069843;28;20064;-56
2021/05/23 02:52:27;;;;;;;9.90;2.85;;;358.70;2201.60;;;;;;5069405;28;20029;-57
2021/05/23 02:54:53;;;;;;;5.53;2.78;;;358.70;2227.20;;;;;;5069503;28;20486;-56
2021/05/23 02:57:19;;;;;;;4.80;3.00;;;358.60;2227.20;;;;;;5069407;28;20047;-56
2021/05/23 02:59:45;;;;;;;7.40;2.72;;;358.40;2252.80;;;;;;5069344;28;20024;-57
2021/05/23 03:02:11;;;;;;;5.50;3.40;;;358.40;2201.60;;;;;;5072845;28;20025;-56
2021/05/23 03:04:37;;;;;;;4.45;2.90;;;358.50;2201.60;;;;;;5072976;28;20075;-56
2021/05/23 03:07:03;;;;;;;4.15;2.50;;;358.50;2176.00;;;;;;5072908;28;20056;-56
2021/05/23 03:09:28;;;;;;;6.60;3.10;;;358.60;2201.60;;;;;;5072717;28;20036;-57
2021/05/23 03:11:55;;;;;;;4.43;2.90;;;358.50;2227.20;;;;;;5072978;28;20020;-56
2021/05/23 03:14:21;;;;;;;7.00;4.13;;;358.40;2278.40;;;;;;5072962;28;20028;-56
2021/05/23 03:16:47;;;;;;;6.93;2.92;;;358.50;2252.80;;;;;;5072776;28;20017;-59
2021/05/23 03:19:12;;;;;;;6.38;3.60;;;358.60;2304.00;;;;;;5073035;28;20036;-57
2021/05/23 03:21:39;;;;;;;7.93;3.90;;;358.60;2278.40;;;;;;5072720;28;20360;-55
2021/05/23 03:24:05;;;;;;;10.45;5.10;;;358.70;2278.40;;;;;;5072642;28;20029;-57
2021/05/23 03:26:32;;;;;;;6.25;4.18;;;358.60;2252.80;;;;;;5072972;28;20041;-57
2021/05/23 03:28:58;;;;;;;8.23;5.15;;;358.80;2252.80;;;;;;5072625;28;20029;-57
2021/05/23 03:31:24;;;;;;;8.85;5.38;;;358.80;2278.40;;;;;;5072498;28;20021;-57
2021/05/23 03:33:49;;;;;;;11.60;5.85;;;358.60;2227.20;;;;;;5072390;28;20496;-56
2021/05/23 03:36:16;;;;;;;9.85;5.03;;;358.90;2227.20;;;;;;5072434;28;20032;-56
2021/05/23 03:38:46;;;;;;;7.55;5.32;;;359.10;2201.60;;;;;;5072529;28;20351;-56
2021/05/23 03:41:12;;;;;;;7.80;4.85;;;359.30;2201.60;;;;;;5072487;28;20041;-57
2021/05/23 03:43:38;;;;;;;7.20;4.72;;;384.00;2150.40;;;;;;5072298;28;20528;-57
2021/05/23 03:46:04;;;;;;;10.60;5.97;;;384.10;2150.40;;;;;;5072457;28;20112;-57
2021/05/23 03:48:30;;;;;;;7.30;5.15;;;384.30;2099.20;;;;;;5072272;28;20028;-56
2021/05/23 03:50:56;;;;;;;9.95;7.35;;;384.40;2073.60;;;;;;5072099;28;20028;-56
2021/05/23 03:53:22;;;;;;;6.72;5.22;;;384.60;2124.80;;;;;;5072154;28;20036;-53
2021/05/23 03:55:49;;;;;;;9.50;4.70;;;384.70;2099.20;;;;;;5071936;28;20039;-57
2021/05/23 03:58:16;;;;;;;10.25;4.75;;;384.80;2124.80;;;;;;5072262;28;20028;-57
2021/05/23 04:00:42;;;;;;;8.02;5.85;;;384.80;2124.80;;;;;;5071862;28;20051;-55
2021/05/23 04:03:07;;;;;;;11.88;7.75;;;384.90;2099.20;;;;;;5071857;28;20490;-56
2021/05/23 04:05:33;;;;;;;9.40;7.70;;;409.70;2099.20;;;;;;5072070;28;20100;-54
2021/05/23 04:08:00;;;;;;;9.50;6.13;;;409.90;2048.00;;;;;;5071819;28;20028;-57
2021/05/23 04:10:31;;;;;;;8.15;6.20;;;410.10;2048.00;;;;;;5056467;28;20032;-54
2021/05/23 04:12:58;;;;;;;5.60;3.85;;;410.20;2048.00;;;;;;5051239;28;20479;-59
2021/05/23 04:15:24;;;;;;;5.65;3.38;;;410.30;2048.00;;;;;;5051826;28;20037;-57
2021/05/23 04:17:51;;;;;;;8.20;3.78;;;410.40;2073.60;;;;;;5051810;28;20029;-55
2021/05/23 04:20:20;;;;;;;8.23;3.33;;;410.50;2022.40;;;;;;5051749;28;20029;-55
2021/05/23 04:22:48;;;;;;;7.47;3.72;;;435.40;2048.00;;;;;;5051294;28;20483;-54
2021/05/23 04:25:15;;;;;;;5.32;3.47;;;435.50;2048.00;;;;;;5051754;28;20059;-55
2021/05/23 04:27:44;;;;;;;5.10;3.10;;;435.60;1996.80;;;;;;5051798;28;20017;-55
2021/05/23 04:30:11;;;;;;;4.55;3.40;;;435.80;1971.20;;;;;;5051179;28;20021;-54
2021/05/23 04:32:37;;;;;;;4.45;3.22;;;436.00;1996.80;;;;;;5051444;28;20119;-54
2021/05/23 04:35:05;;;;;;;6.82;4.00;;;460.90;1996.80;;;;;;5051559;28;20526;-55
2021/05/23 04:37:31;;;;;;;6.95;3.58;;;461.20;1971.20;;;;;;5051424;28;20037;-55
2021/05/23 04:39:57;;;;;;;4.85;3.42;;;486.50;1894.40;;;;;;5051360;28;20078;-54
2021/05/23 04:42:23;;;;;;;12.57;3.75;;;563.40;1612.80;;;;;;5051200;28;20118;-54
2021/05/23 04:44:49;;;;;;;5.65;3.05;;;614.50;1459.20;;;;;;5051196;28;20017;-54
2021/05/23 04:47:15;;;;;;;4.53;2.95;;;614.50;1382.40;;;;;;5051014;28;20025;-54
2021/05/23 04:49:41;;;;;;;3.72;2.55;;;615.10;1331.20;;;;;;5051280;28;20034;-54
2021/05/23 04:52:11;;;;;;;4.45;3.00;;;589.40;1459.20;;;;;;5050899;28;20027;-54
2021/05/23 04:54:39;;;;;;;6.85;3.83;;;588.90;1433.60;;;;;;5051187;28;20052;-55
2021/05/23 04:57:05;;;;;;;5.20;3.53;;;588.90;1459.20;;;;;;5050952;28;20375;-54
2021/05/23 04:59:32;;;;;;;5.72;3.50;;;589.10;1433.60;;;;;;5050961;28;20565;-55
2021/05/23 05:01:58;;;;;;;7.03;4.53;;;563.30;1561.60;;;;;;5050624;28;20120;-55
2021/05/23 05:04:25;;;;;;;8.05;3.65;;;538.20;1587.20;;;;;;5050947;28;20172;-54
2021/05/23 05:06:51;;;;;;;4.80;3.58;;;538.10;1587.20;;;;;;5050853;28;20455;-57
2021/05/23 05:09:17;;;;;;;6.45;4.15;;;537.90;1638.40;;;;;;5050712;28;20035;-56
2021/05/23 05:11:43;;;;;;;5.72;4.38;;;512.90;1612.80;;;;;;5050963;28;20079;-55
2021/05/23 05:14:10;;;;;;;5.63;3.83;;;512.60;1664.00;;;;;;5050603;28;20064;-55
2021/05/23 05:16:37;;;;;;;7.45;4.68;;;537.70;1612.80;;;;;;5053011;28;20418;-55
2021/05/23 05:19:03;;;;;;;11.45;5.50;;;538.20;1587.20;;;;;;5050689;28;20091;-55
2021/05/23 05:21:29;;;;;;;9.70;4.72;;;563.20;1587.20;;;;;;5050633;28;20025;-55
2021/05/23 05:23:55;;;;;;;5.88;4.38;;;563.50;1561.60;;;;;;5049660;28;20037;-54
2021/05/23 05:26:21;;;;;;;8.30;4.88;;;564.00;1510.40;;;;;;5050449;28;20056;-56
2021/05/23 05:28:47;;;;;;;6.50;4.20;;;640.50;1356.80;;;;;;5050395;28;20519;-57
2021/05/23 05:31:12;;;;;;;7.68;3.75;;;666.20;1254.40;;;;;;5050157;28;20033;-54
2021/05/23 05:33:39;;;;;;;7.15;4.57;;;640.90;1228.80;;;;;;5050545;28;20028;-55
2021/05/23 05:36:05;;;;;;;7.95;4.35;;;614.80;1305.60;;;;;;5050347;28;20025;-55
2021/05/23 05:38:31;;;;;;;7.13;4.28;;;614.50;1356.80;;;;;;5050323;28;20139;-59
2021/05/23 05:40:57;;;;;;;6.45;4.60;;;614.90;1356.80;;;;;;5050132;28;20671;-55
2021/05/23 05:43:24;;;;;;;5.53;3.92;;;615.10;1280.00;;;;;;5050067;28;20391;-54
2021/05/23 05:45:50;;;;;;;7.55;4.60;;;615.30;1254.40;;;;;;5050168;28;20344;-56
2021/05/23 05:48:17;;;;;;;6.80;5.45;;;666.30;1177.60;;;;;;5049988;28;20543;-56
2021/05/23 05:50:42;;;;;;;6.88;5.57;;;691.20;1152.00;;;;;;5050163;28;20467;-54
2021/05/23 05:53:08;;;;;;;7.60;5.68;;;691.70;1126.40;;;;;;5050032;28;20040;-55
2021/05/23 05:55:34;;;;;;;9.20;5.60;;;691.70;1177.60;;;;;;5050101;28;20021;-55
2021/05/23 05:58:00;;;;;;;10.88;8.73;;;717.20;1126.40;;;;;;5050009;28;20021;-58
2021/05/23 06:00:26;;;;;;;8.30;7.32;;;743.10;1049.60;;;;;;5049701;28;20406;-55
2021/05/23 06:02:52;;;;;;;8.55;7.40;;;768.20;1024.00;;;;;;5050213;28;20033;-56
2021/05/23 06:05:18;;;;;;;10.13;7.55;;;742.60;1049.60;;;;;;5049725;28;20471;-54
2021/05/23 06:07:44;;;;;;;9.07;6.57;;;717.60;1075.20;;;;;;5049818;28;20024;-58
2021/05/23 06:10:11;;;;;;;13.40;7.00;;;717.50;1075.20;;;;;;5049952;28;20075;-60
2021/05/23 06:12:36;;;;;;;9.60;8.63;;;717.70;1075.20;;;;;;5032116;28;20562;-55
2021/05/23 06:15:03;;;;;;;14.05;7.90;;;793.80;972.80;;;;;;5050065;28;20074;-58
2021/05/23 06:17:29;;;;;;;9.38;8.20;;;794.00;896.00;;;;;;5049596;28;20060;-59
2021/05/23 06:19:55;;;;;;;13.52;8.63;;;768.20;947.20;;;;;;5049867;28;20067;-56
2021/05/23 06:22:20;;;;;;;11.45;4.13;;;768.00;972.80;;;;;;5049952;28;20370;-60
2021/05/23 06:24:46;;;;;;;3.50;2.50;;;742.90;844.80;;;;;;5049758;28;20391;-55
2021/05/23 06:27:12;;;;;;;4.55;2.30;;;717.10;819.20;;;;;;5049727;28;20029;-54
2021/05/23 06:29:38;;;;;;;5.97;3.03;;;716.80;844.80;;;;;;5049822;28;20033;-54
2021/05/23 06:32:06;;;;;;;3.28;2.45;;;692.10;793.60;;;;;;5049572;28;20033;-56
2021/05/23 06:34:32;;;;;;;5.95;2.80;;;716.80;870.40;;;;;;5050641;28;20048;-56
2021/05/23 06:36:58;;;;;;;7.10;3.63;;;717.30;844.80;;;;;;5053795;28;20036;-54
2021/05/23 06:39:24;;;;;;;8.23;7.18;;;717.40;844.80;;;;;;5053651;28;20475;-55
2021/05/23 06:41:50;;;;;;;7.13;6.28;;;717.40;819.20;;;;;;5053365;28;20398;-54
2021/05/23 06:44:16;;;;;;;4.93;4.22;;;717.60;844.80;;;;;;5053431;28;20048;-54
2021/05/23 06:46:42;;;;;;;4.18;3.80;;;717.50;819.20;;;;;;5053409;28;20024;-55
2021/05/23 06:49:08;;;;;;;8.07;3.25;;;742.60;844.80;;;;;;5053391;28;20119;-55
2021/05/23 06:51:34;;;;;;;6.22;4.57;;;743.10;793.60;;;;;;5053506;28;20029;-58
2021/05/23 06:53:59;;;;;;;51.60;26.42;;;768.00;793.60;;;;;;5053124;28;20025;-58
2021/05/23 06:56:25;;;;;;;9.38;5.15;;;794.10;768.00;;;;;;5053174;28;20028;-55
2021/05/23 06:58:51;;;;;;;3.95;3.55;;;819.80;716.80;;;;;;5053310;28;20413;-64
2021/05/23 07:01:16;;;;;;;5.00;4.50;;;845.70;640.00;;;;;;5052955;28;20061;-58
2021/05/23 07:03:42;;;;;;;5.15;4.65;;;896.20;588.80;;;;;;5053200;28;20101;-55
2021/05/23 07:06:08;;;;;;;5.28;4.78;;;922.00;588.80;;;;;;5053219;28;20493;-60
2021/05/23 07:08:33;;;;;;;5.30;4.80;;;947.50;537.60;;;;;;5053036;28;20079;-56
2021/05/23 07:10:59;;;;;;;5.07;4.68;;;972.90;512.00;;;;;;5052923;28;20043;-54
2021/05/23 07:13:26;;;;;;;5.60;5.10;;;973.70;486.40;;;;;;5053102;28;20025;-56
2021/05/23 07:15:53;;;;;;;5.22;4.72;;;1024.00;460.80;;;;;;5052937;28;20033;-55
2021/05/23 07:18:19;;;;;;;6.07;5.50;;;999.20;460.80;;;;;;5050665;28;20610;-55
2021/05/23 07:20:45;;;;;;;6.32;4.45;;;1024.10;486.40;;;;;;5051376;28;20029;-56
2021/05/23 07:23:12;;;;;;;4.95;4.55;;;999.10;460.80;;;;;;5050899;28;20033;-54
2021/05/23 07:25:38;;;;;;;5.47;4.35;;;1024.20;486.40;;;;;;5051205;28;20025;-58
2021/05/23 07:28:05;;;;;;;5.43;4.93;;;999.20;486.40;;;;;;5051401;28;20021;-56
2021/05/23 07:30:31;;;;;;;5.45;4.88;;;999.30;460.80;;;;;;5050390;28;20037;-57
2021/05/23 07:32:57;;;;;;;7.32;6.70;;;1049.80;460.80;;;;;;5034475;28;20494;-55
2021/05/23 07:35:23;;;;;;;5.40;4.38;;;1050.50;409.60;;;;;;5058828;28;20036;-56
2021/05/23 07:37:49;;;;;;;5.32;4.82;;;1050.10;409.60;;;;;;5055370;28;20075;-56
2021/05/23 07:40:15;;;;;;;6.18;5.35;;;1049.60;460.80;;;;;;5053048;28;20021;-57
2021/05/23 07:42:42;;;;;;;5.30;4.88;;;1075.60;409.60;;;;;;5058055;28;20055;-55
2021/05/23 07:45:09;;;;;;;5.80;5.28;;;1076.10;384.00;;;;;;5056092;28;20037;-62
2021/05/23 07:47:35;;;;;;;5.00;4.60;;;1076.10;384.00;;;;;;5051420;28;20029;-58
2021/05/23 07:50:01;;;;;;;5.85;5.35;;;1076.10;358.40;;;;;;5052409;28;20032;-56
2021/05/23 07:52:28;;;;;;;7.28;5.55;;;1100.90;409.60;;;;;;5052170;28;20376;-56
2021/05/23 07:54:53;;;;;;;7.72;7.03;;;1101.70;409.60;;;;;;5057681;28;20019;-55
2021/05/23 07:57:19;;;;;;;5.95;5.13;;;1101.50;384.00;;;;;;5071808;28;20016;-57
2021/05/23 07:59:45;;;;;;;8.80;5.40;;;1126.50;409.60;;;;;;5069431;28;20082;-57
2021/05/23 08:02:11;;;;;;;5.03;4.63;;;1101.00;384.00;;;;;;5070244;28;20055;-57
2021/05/23 08:04:36;;;;;;;7.80;5.88;;;1101.50;384.00;;;;;;5069978;28;20032;-56
2021/05/23 08:07:02;;;;;;;5.88;5.20;;;1101.20;384.00;;;;;;5070638;28;20481;-57
2021/05/23 08:09:28;;;;;;;5.28;4.88;;;1101.10;384.00;;;;;;5069702;28;20079;-56
2021/05/23 08:11:54;;;;;;;5.45;4.30;;;1075.90;358.40;;;;;;5069962;28;20025;-58
2021/05/23 08:14:20;;;;;;;6.00;4.63;;;1075.60;358.40;;;;;;5070129;28;20490;-55
2021/05/23 08:16:47;;;;;;;4.88;4.45;;;1024.60;358.40;;;;;;5070263;28;20031;-57
2021/05/23 08:19:13;;;;;;;3.92;3.35;;;973.00;435.20;;;;;;5069793;28;20040;-55
2021/05/23 08:21:39;;;;;;;5.45;3.55;;;896.90;486.40;;;;;;5072169;28;20016;-57
2021/05/23 08:24:06;;;;;;;5.55;2.72;;;870.50;537.60;;;;;;5071535;28;20032;-56
2021/05/23 08:26:33;;;;;;;3.72;2.70;;;845.70;588.80;;;;;;5053456;28;20478;-56
2021/05/23 08:29:01;;;;;;;4.75;2.80;;;845.70;563.20;;;;;;5071520;28;20061;-56
2021/05/23 08:31:27;;;;;;;5.22;2.60;;;844.80;563.20;;;;;;5071103;28;20032;-57
2021/05/23 08:33:53;;;;;;;5.00;3.58;;;819.30;614.40;;;;;;5063870;28;20036;-55
2021/05/23 08:36:20;;;;;;;3.45;2.72;;;794.00;640.00;;;;;;5061730;28;20024;-57
2021/05/23 08:38:46;;;;;;;4.55;2.90;;;793.90;640.00;;;;;;5051624;28;20029;-61
2021/05/23 08:41:18;;;;;;;3.90;2.65;;;794.00;716.80;;;;;;5051255;28;20025;-58
2021/05/23 08:43:45;;;;;;;4.35;2.30;;;794.10;640.00;;;;;;5035084;28;20049;-61
2021/05/23 08:46:11;;;;;;;6.05;2.47;;;793.90;640.00;;;;;;5060526;28;20378;-61
2021/05/23 08:48:39;;;;;;;4.22;2.45;;;793.70;691.20;;;;;;5067854;28;20078;-55
2021/05/23 08:51:06;;;;;;;3.97;2.28;;;768.90;665.60;;;;;;5070640;28;20025;-57
2021/05/23 08:53:31;;;;;;;8.23;3.42;;;768.50;640.00;;;;;;5071252;28;20032;-65
2021/05/23 08:55:58;;;;;;;3.75;3.10;;;768.40;665.60;;;;;;5070966;28;20098;-62
2021/05/23 08:58:25;;;;;;;5.18;2.38;;;768.40;691.20;;;;;;5070874;28;20033;-61
2021/05/23 09:00:51;;;;;;;4.97;2.88;;;768.00;665.60;;;;;;5070863;28;20024;-62
2021/05/23 09:03:18;;;;;;;8.93;2.85;;;768.10;716.80;;;;;;5070596;28;20089;-61
2021/05/23 09:05:58;;;;;;;3.67;2.60;;;768.30;742.40;;;;;;5071163;28;20066;-62
2021/05/23 09:08:27;;;;;;;3.63;2.67;;;768.10;716.80;;;;;;5070954;28;20028;-61
2021/05/23 09:10:59;;;;;;;3.85;2.40;;;743.30;716.80;;;;;;5070451;28;20032;-61
2021/05/23 09:13:29;;;;;;;3.92;2.50;;;768.10;742.40;;;;;;5064398;28;20033;-62
2021/05/23 09:16:03;;;;;;;4.25;2.53;;;768.10;716.80;;;;;;5060284;28;20076;-61
2021/05/23 09:18:47;;;;;;;4.53;2.95;;;743.20;768.00;;;;;;5061048;28;20029;-61
2021/05/23 09:21:15;;;;;;;5.78;2.65;;;743.10;793.60;;;;;;5061517;28;20052;-60
2021/05/23 09:23:48;;;;;;;5.78;2.88;;;742.70;793.60;;;;;;5070342;28;20093;-65
2021/05/23 09:26:16;;;;;;;3.50;2.72;;;742.40;793.60;;;;;;5070531;28;20108;-64
2021/05/23 09:28:42;;;;;;;5.30;2.80;;;742.60;768.00;;;;;;5062016;28;20609;-63
2021/05/23 09:31:17;;;;;;;8.02;2.63;;;717.70;768.00;;;;;;5047817;28;20115;-61
2021/05/23 09:33:46;;;;;;;3.80;2.30;;;742.50;793.60;;;;;;5050363;28;20070;-61
2021/05/23 09:36:12;;;;;;;7.82;2.88;;;742.40;819.20;;;;;;5049601;28;20032;-63
2021/05/23 09:38:54;;;;;;;5.22;3.05;;;717.60;768.00;;;;;;5049974;28;20032;-61
2021/05/23 09:41:28;;;;;;;4.13;2.70;;;717.50;793.60;;;;;;5049876;28;20049;-62
2021/05/23 09:44:21;;;;;;;3.55;2.72;;;742.40;819.20;;;;;;5049011;28;20475;-64
2021/05/23 09:46:55;;;;;;;4.18;2.80;;;742.40;819.20;;;;;;5047128;28;20021;-61
2021/05/23 09:49:22;;;;;;;5.20;2.53;;;742.50;819.20;;;;;;5048208;28;20079;-62
2021/05/23 09:51:55;;;;;;;3.33;2.65;;;742.60;844.80;;;;;;5028954;28;20029;-65
2021/05/23 09:54:23;;;;;;;13.48;3.33;;;742.60;870.40;;;;;;5047673;28;20546;-67
2021/05/23 09:56:49;;;;;;;6.05;3.25;;;742.40;819.20;;;;;;5048033;28;20087;-60
2021/05/23 09:59:26;;;;;;;12.82;2.97;;;717.50;819.20;;;;;;5047031;28;20021;-65
2021/05/23 10:01:52;;;;;;;6.18;3.08;;;742.40;896.00;;;;;;5047510;28;20045;-65
2021/05/23 10:04:25;;;;;;;10.55;3.53;;;742.40;844.80;;;;;;5048334;28;20120;-66
2021/05/23 10:06:59;;;;;;;8.77;3.22;;;742.40;819.20;;;;;;5049630;28;20025;-61
2021/05/23 10:09:26;;;;;;;6.75;3.00;;;742.40;819.20;;;;;;5051476;28;20029;-60
2021/05/23 10:11:52;;;;;;;4.82;2.67;;;717.70;844.80;;;;;;5055848;28;20091;-60
2021/05/23 10:14:18;;;;;;;4.72;2.85;;;742.40;844.80;;;;;;5055223;28;20036;-60
2021/05/23 10:16:47;;;;;;;3.50;2.83;;;717.50;793.60;;;;;;5056380;28;20374;-60
2021/05/23 10:19:12;;;;;;;4.30;2.47;;;742.40;870.40;;;;;;5055748;28;20021;-59
2021/05/23 10:21:38;;;;;;;3.60;2.30;;;742.40;870.40;;;;;;5056403;28;20029;-61
2021/05/23 10:24:05;;;;;;;6.90;2.75;;;717.60;870.40;;;;;;5056189;28;20048;-59
2021/05/23 10:26:32;;;;;;;4.85;2.80;;;717.60;844.80;;;;;;5056561;28;20483;-61
2021/05/23 10:29:00;;;;;;;5.40;2.47;;;717.60;819.20;;;;;;5056422;28;20037;-61
2021/05/23 10:31:36;;;;;;;5.03;2.88;;;717.20;844.80;;;;;;5056342;28;20029;-61
2021/05/23 10:34:03;;;;;;;5.78;2.47;;;717.10;844.80;;;;;;5056577;28;20041;-61
2021/05/23 10:36:37;;;;;;;6.03;3.00;;;717.20;870.40;;;;;;5056231;28;20027;-61
2021/05/23 10:39:09;;;;;;;8.57;2.45;;;717.10;844.80;;;;;;5056361;28;20033;-63
2021/05/23 10:41:35;;;;;;;11.48;3.67;;;717.20;844.80;;;;;;5055899;28;20041;-63
2021/05/23 10:44:05;;;;;;;4.65;2.70;;;717.20;870.40;;;;;;5056268;28;20059;-61
2021/05/23 10:46:31;;;;;;;7.57;3.20;;;717.30;870.40;;;;;;5056287;28;20040;-62
2021/05/23 10:48:59;;;;;;;10.30;2.97;;;717.20;844.80;;;;;;5056409;28;20025;-61
2021/05/23 10:51:26;;;;;;;5.03;2.70;;;717.10;870.40;;;;;;5056071;28;20025;-60
2021/05/23 10:53:53;;;;;;;8.25;3.03;;;717.20;844.80;;;;;;5056319;28;20082;-61
2021/05/23 10:56:23;;;;;;;7.95;2.83;;;717.20;870.40;;;;;;5056019;28;20033;-60
2021/05/23 10:58:57;;;;;;;4.38;2.45;;;717.40;896.00;;;;;;5055990;28;20045;-65
2021/05/23 11:01:42;;;;;;;7.18;2.88;;;717.30;819.20;;;;;;5056082;28;20482;-61
2021/05/23 11:04:13;;;;;;;8.07;3.58;;;717.20;870.40;;;;;;5056214;28;20048;-61
2021/05/23 11:06:40;;;;;;;4.72;2.95;;;717.30;870.40;;;;;;5056044;28;20033;-64
2021/05/23 11:09:11;;;;;;;4.45;2.72;;;717.20;870.40;;;;;;5055925;28;20031;-61
2021/05/23 11:11:37;;;;;;;5.90;2.75;;;717.20;870.40;;;;;;5055877;28;20041;-64
2021/05/23 11:14:23;;;;;;;6.30;2.38;;;717.60;921.60;;;;;;5056080;28;20463;-61
2021/05/23 11:16:59;;;;;;;5.45;2.85;;;717.40;921.60;;;;;;5055868;28;20478;-61
2021/05/23 11:19:30;;;;;;;4.35;3.00;;;717.70;921.60;;;;;;5056007;28;20021;-62
2021/05/23 11:21:58;;;;;;;7.85;3.15;;;717.70;896.00;;;;;;5052153;28;20486;-61
2021/05/23 11:24:30;;;;;;;9.10;3.08;;;717.70;870.40;;;;;;5052893;28;20045;-60
2021/05/23 11:27:08;;;;;;;3.50;2.63;;;742.40;921.60;;;;;;5052957;28;20021;-61
2021/05/23 11:29:34;;;;;;;9.10;4.15;;;717.40;844.80;;;;;;5052992;28;20489;-65
2021/05/23 11:31:59;;;;;;;4.35;2.30;;;717.70;921.60;;;;;;5052491;28;20111;-61
2021/05/23 11:34:28;;;;;;;11.40;2.42;;;717.70;870.40;;;;;;5052555;28;20032;-61
2021/05/23 11:36:54;;;;;;;5.32;2.75;;;717.70;896.00;;;;;;5052632;28;20467;-61
2021/05/23 11:39:21;;;;;;;5.63;2.83;;;742.40;921.60;;;;;;5052363;28;20052;-61
2021/05/23 11:41:48;;;;;;;5.00;2.10;;;742.40;921.60;;;;;;5052287;28;20479;-60
2021/05/23 11:44:15;;;;;;;6.07;2.75;;;742.40;921.60;;;;;;5052530;28;20041;-64
2021/05/23 11:46:50;;;;;;;4.90;3.40;;;717.70;896.00;;;;;;5052591;28;20083;-62
2021/05/23 11:49:24;;;;;;;3.78;2.47;;;717.70;896.00;;;;;;5052289;28;20024;-61
2021/05/23 11:51:50;;;;;;;6.00;2.85;;;717.70;896.00;;;;;;5052386;28;20028;-61
2021/05/23 11:54:17;;;;;;;9.05;4.78;;;742.50;972.80;;;;;;5043822;28;20513;-68
2021/05/23 11:56:43;;;;;;;14.35;8.23;;;742.40;896.00;;;;;;5048621;28;20035;-64
2021/05/23 11:59:10;;;;;;;7.40;2.60;;;717.70;896.00;;;;;;5049429;28;20024;-63
2021/05/23 12:01:46;;;;;;;7.32;5.03;;;742.50;896.00;;;;;;5049430;28;20025;-64
2021/05/23 12:04:13;;;;;;;6.38;3.13;;;742.50;947.20;;;;;;5049899;28;20115;-65
2021/05/23 12:06:50;;;;;;;5.65;2.90;;;742.50;921.60;;;;;;5049509;28;20025;-64
2021/05/23 12:09:23;;;;;;;5.47;2.60;;;742.50;896.00;;;;;;5049397;28;20044;-67
2021/05/23 12:11:56;;;;;;;4.55;2.92;;;742.60;896.00;;;;;;5050139;28;20043;-65
2021/05/23 12:14:24;;;;;;;4.93;2.80;;;742.70;896.00;;;;;;5050385;28;20119;-61
2021/05/23 12:17:09;;;;;;;6.18;2.83;;;742.60;921.60;;;;;;5047793;28;20112;-62
2021/05/23 12:19:49;;;;;;;6.78;2.63;;;742.70;921.60;;;;;;5049633;28;20017;-62
2021/05/23 12:22:20;;;;;;;6.63;3.00;;;742.60;921.60;;;;;;5049312;28;20021;-65
2021/05/23 12:24:48;;;;;;;5.00;2.78;;;742.50;921.60;;;;;;5048819;28;20475;-63